Time;durP1;ratioP1;P1;durP2;ratioP2;P2;SDS_P1;SDS_P2;PMS_P1;PMS_P2;Temp;Humidity;BMP_temperature;BMP_pressure;BME280_temperature;BME280_humidity;BME280_pressure;Samples;Min_cycle;Max_cycle;Signal;HPM_P1;HPM_P2
2023/09/26 00:02:16;;;;;;;;;5.00;5.00;;;;;;;;5029045;28;45612;-77
2023/09/26 00:04:42;;;;;;;;;5.33;5.33;;;;;;;;5025645;28;45278;-77
2023/09/26 00:07:07;;;;;;;;;5.00;5.00;;;;;;;;5050758;28;45251;-77
2023/09/26 00:09:32;;;;;;;;;9.00;9.00;;;;;;;;5037192;28;45315;-77
2023/09/26 00:11:57;;;;;;;;;6.67;5.00;;;;;;;;5034527;28;45454;-77
2023/09/26 00:14:23;;;;;;;;;7.67;7.67;;;;;;;;5035541;28;45299;-77
2023/09/26 00:16:48;;;;;;;;;7.33;7.00;;;;;;;;5035700;28;45232;-77
2023/09/26 00:19:13;;;;;;;;;9.67;8.67;;;;;;;;5033721;28;45300;-77
2023/09/26 00:21:38;;;;;;;;;7.00;5.00;;;;;;;;5043558;28;47281;-77
2023/09/26 00:24:04;;;;;;;;;9.33;7.00;;;;;;;;5045227;28;45749;-77
2023/09/26 00:26:29;;;;;;;;;4.67;4.67;;;;;;;;5029816;28;45194;-77
2023/09/26 00:28:54;;;;;;;;;7.00;7.00;;;;;;;;5033689;28;45228;-77
2023/09/26 00:31:19;;;;;;;;;8.00;8.00;;;;;;;;5027473;28;46489;-77
2023/09/26 00:33:45;;;;;;;;;6.67;6.00;;;;;;;;5022066;28;46151;-78
2023/09/26 00:36:10;;;;;;;;;8.00;8.00;;;;;;;;5031611;28;45469;-77
2023/09/26 00:38:38;;;;;;;;;6.33;6.33;;;;;;;;5049187;28;47513;-77
2023/09/26 00:41:03;;;;;;;;;7.00;7.00;;;;;;;;5044270;28;48191;-78
2023/09/26 00:43:28;;;;;;;;;5.33;5.33;;;;;;;;5044584;28;45291;-78
2023/09/26 00:45:59;;;;;;;;;7.00;7.00;;;;;;;;5042244;28;45226;-78
2023/09/26 00:48:24;;;;;;;;;6.00;6.00;;;;;;;;5048384;28;45239;-77
2023/09/26 00:50:51;;;;;;;;;7.00;7.00;;;;;;;;5044555;28;48151;-77
2023/09/26 00:53:16;;;;;;;;;6.00;6.00;;;;;;;;5043624;28;45374;-77
2023/09/26 00:55:42;;;;;;;;;7.00;7.00;;;;;;;;5045123;28;45302;-78
2023/09/26 00:58:09;;;;;;;;;7.00;7.00;;;;;;;;5042317;28;46147;-77
2023/09/26 01:00:35;;;;;;;;;5.00;5.00;;;;;;;;5046844;28;46417;-77
2023/09/26 01:03:01;;;;;;;;;6.67;6.67;;;;;;;;5043919;28;45273;-78
2023/09/26 01:05:26;;;;;;;;;6.00;5.00;;;;;;;;5043319;28;45334;-78
2023/09/26 01:07:52;;;;;;;;;8.00;7.67;;;;;;;;5045992;28;45535;-78
2023/09/26 01:10:17;;;;;;;;;3.33;3.33;;;;;;;;5056436;28;46819;-77
2023/09/26 01:12:42;;;;;;;;;5.00;5.00;;;;;;;;5038431;28;45399;-77
2023/09/26 01:15:08;;;;;;;;;5.67;5.67;;;;;;;;5041818;28;45606;-77
2023/09/26 01:17:34;;;;;;;;;5.00;5.00;;;;;;;;5042294;28;45465;-77
2023/09/26 01:20:11;;;;;;;;;4.33;4.33;;;;;;;;5050623;28;45334;-77
2023/09/26 01:22:40;;;;;;;;;2.67;2.67;;;;;;;;5051938;28;45294;-77
2023/09/26 01:25:08;;;;;;;;;6.00;5.00;;;;;;;;5046713;28;45317;-77
2023/09/26 01:27:33;;;;;;;;;5.33;5.00;;;;;;;;5048334;28;47403;-77
2023/09/26 01:29:58;;;;;;;;;5.00;4.00;;;;;;;;5027637;28;46194;-77
2023/09/26 01:32:25;;;;;;;;;5.33;4.00;;;;;;;;5032201;28;45326;-77
2023/09/26 01:34:50;;;;;;;;;6.67;6.67;;;;;;;;5031700;28;45331;-77
2023/09/26 01:37:15;;;;;;;;;6.67;6.67;;;;;;;;5025349;28;45439;-77
2023/09/26 01:39:41;;;;;;;;;5.00;3.67;;;;;;;;5031679;28;45888;-77
2023/09/26 01:42:06;;;;;;;;;7.00;7.00;;;;;;;;5046024;28;45168;-77
2023/09/26 01:44:31;;;;;;;;;5.00;5.00;;;;;;;;5027050;28;45375;-77
2023/09/26 01:46:56;;;;;;;;;5.00;5.00;;;;;;;;5042763;28;46067;-77
2023/09/26 01:49:22;;;;;;;;;6.00;6.00;;;;;;;;5044781;28;47519;-77
2023/09/26 01:51:47;;;;;;;;;4.00;4.00;;;;;;;;5024582;28;45320;-76
2023/09/26 01:54:12;;;;;;;;;7.00;6.00;;;;;;;;5022177;28;45205;-78
2023/09/26 01:56:37;;;;;;;;;3.33;3.33;;;;;;;;5042632;28;46196;-77
2023/09/26 01:59:02;;;;;;;;;4.33;4.33;;;;;;;;5047811;28;45349;-77
2023/09/26 02:01:27;;;;;;;;;3.00;3.00;;;;;;;;5044400;28;45224;-77
2023/09/26 02:03:53;;;;;;;;;5.00;4.67;;;;;;;;5045460;28;45279;-77
2023/09/26 02:06:18;;;;;;;;;5.67;5.00;;;;;;;;5043431;28;45227;-77
2023/09/26 02:08:43;;;;;;;;;4.00;4.00;;;;;;;;5044994;28;46274;-77
2023/09/26 02:11:08;;;;;;;;;6.00;6.00;;;;;;;;5043429;28;45301;-77
2023/09/26 02:13:33;;;;;;;;;6.33;6.33;;;;;;;;5045692;28;45288;-77
2023/09/26 02:15:59;;;;;;;;;5.00;4.00;;;;;;;;5047704;28;45520;-78
2023/09/26 02:18:24;;;;;;;;;6.00;6.00;;;;;;;;5043811;28;48259;-77
2023/09/26 02:20:50;;;;;;;;;5.67;5.67;;;;;;;;5044202;28;45289;-77
2023/09/26 02:23:15;;;;;;;;;5.00;5.00;;;;;;;;5044919;28;45273;-78
2023/09/26 02:25:40;;;;;;;;;7.00;7.00;;;;;;;;5041773;28;45445;-77
2023/09/26 02:28:06;;;;;;;;;7.67;6.67;;;;;;;;5042142;28;47144;-77
2023/09/26 02:30:31;;;;;;;;;5.00;4.00;;;;;;;;5024883;28;45282;-77
2023/09/26 02:32:56;;;;;;;;;4.00;4.00;;;;;;;;5023917;28;45322;-77
2023/09/26 02:35:21;;;;;;;;;4.67;4.67;;;;;;;;5024946;28;45295;-77
2023/09/26 02:37:46;;;;;;;;;6.00;6.00;;;;;;;;5020278;28;46111;-77
2023/09/26 02:40:12;;;;;;;;;4.00;4.00;;;;;;;;5022362;28;45248;-76
2023/09/26 02:42:43;;;;;;;;;7.00;7.00;;;;;;;;5038526;28;45342;-78
2023/09/26 02:45:09;;;;;;;;;5.00;5.00;;;;;;;;5023750;28;45468;-77
2023/09/26 02:47:34;;;;;;;;;4.67;4.00;;;;;;;;5022902;28;46157;-77
2023/09/26 02:50:00;;;;;;;;;7.33;6.67;;;;;;;;5022089;28;45140;-76
2023/09/26 02:52:25;;;;;;;;;5.33;5.33;;;;;;;;5021898;28;45253;-78
2023/09/26 02:54:51;;;;;;;;;4.00;4.00;;;;;;;;5022971;28;45275;-77
2023/09/26 02:57:18;;;;;;;;;6.67;4.33;;;;;;;;5022828;28;48185;-77
2023/09/26 02:59:43;;;;;;;;;4.00;4.00;;;;;;;;5024580;28;45270;-77
2023/09/26 03:02:08;;;;;;;;;4.00;4.00;;;;;;;;5026579;28;45269;-77
2023/09/26 03:04:33;;;;;;;;;5.00;5.00;;;;;;;;5027482;28;45315;-76
2023/09/26 03:06:58;;;;;;;;;4.00;4.00;;;;;;;;5030577;28;46247;-77
2023/09/26 03:09:24;;;;;;;;;5.00;5.00;;;;;;;;5031098;28;45232;-77
2023/09/26 03:11:49;;;;;;;;;6.00;6.00;;;;;;;;5027893;28;45371;-77
2023/09/26 03:14:14;;;;;;;;;4.67;4.67;;;;;;;;5026884;28;45229;-77
2023/09/26 03:16:40;;;;;;;;;5.33;5.33;;;;;;;;5043957;28;46257;-77
2023/09/26 03:19:08;;;;;;;;;7.00;7.00;;;;;;;;5027711;28;45232;-77
2023/09/26 03:21:33;;;;;;;;;5.00;5.00;;;;;;;;5027516;28;45315;-77
2023/09/26 03:23:58;;;;;;;;;6.00;5.67;;;;;;;;5040253;28;46402;-77
2023/09/26 03:26:23;;;;;;;;;4.67;4.67;;;;;;;;5028430;28;45433;-77
2023/09/26 03:28:48;;;;;;;;;6.00;6.00;;;;;;;;5027877;28;46109;-77
2023/09/26 03:31:14;;;;;;;;;5.67;5.67;;;;;;;;5031220;28;45220;-77
2023/09/26 03:33:39;;;;;;;;;5.00;5.00;;;;;;;;5025994;28;45561;-77
2023/09/26 03:36:04;;;;;;;;;5.00;5.00;;;;;;;;5041318;28;45426;-77
2023/09/26 03:38:30;;;;;;;;;7.00;6.33;;;;;;;;5044548;28;45444;-77
2023/09/26 03:41:03;;;;;;;;;8.00;7.33;;;;;;;;5043381;28;45313;-77
2023/09/26 03:43:29;;;;;;;;;4.67;4.33;;;;;;;;5051545;28;45200;-77
2023/09/26 03:45:54;;;;;;;;;5.67;5.33;;;;;;;;5046874;28;47053;-77
2023/09/26 03:48:19;;;;;;;;;5.67;5.67;;;;;;;;5048096;28;45374;-77
2023/09/26 03:50:46;;;;;;;;;6.67;6.00;;;;;;;;5046420;28;45599;-77
2023/09/26 03:53:12;;;;;;;;;5.33;5.33;;;;;;;;5050686;28;45491;-76
2023/09/26 03:55:38;;;;;;;;;5.00;5.00;;;;;;;;5052512;28;46192;-77
2023/09/26 03:58:03;;;;;;;;;8.33;8.33;;;;;;;;5062031;28;45399;-78
2023/09/26 04:00:29;;;;;;;;;7.00;7.00;;;;;;;;5047292;28;45346;-77
2023/09/26 04:02:55;;;;;;;;;6.67;5.67;;;;;;;;5046156;28;45264;-77
2023/09/26 04:05:21;;;;;;;;;6.33;6.00;;;;;;;;5046505;28;48166;-77
2023/09/26 04:07:46;;;;;;;;;6.67;6.67;;;;;;;;5045810;28;45243;-77
2023/09/26 04:10:12;;;;;;;;;7.33;5.67;;;;;;;;5044430;28;45324;-77
2023/09/26 04:12:37;;;;;;;;;7.67;7.67;;;;;;;;5046923;28;45314;-77
2023/09/26 04:15:02;;;;;;;;;4.67;4.67;;;;;;;;5046936;28;45300;-77
2023/09/26 04:17:28;;;;;;;;;8.00;6.67;;;;;;;;5045745;28;45341;-77
2023/09/26 04:19:54;;;;;;;;;5.00;5.00;;;;;;;;5045062;28;45191;-77
2023/09/26 04:22:19;;;;;;;;;9.00;8.33;;;;;;;;5047209;28;45180;-77
2023/09/26 04:24:44;;;;;;;;;7.33;6.67;;;;;;;;5043553;28;47065;-78
2023/09/26 04:27:09;;;;;;;;;6.33;6.33;;;;;;;;5044441;28;45255;-78
2023/09/26 04:29:35;;;;;;;;;7.67;7.33;;;;;;;;5034585;28;45345;-77
2023/09/26 04:32:00;;;;;;;;;10.00;7.33;;;;;;;;5024959;28;46508;-77
2023/09/26 04:34:27;;;;;;;;;5.00;5.00;;;;;;;;5026813;28;46196;-77
2023/09/26 04:36:52;;;;;;;;;5.67;5.00;;;;;;;;5027804;28;45322;-77
2023/09/26 04:39:18;;;;;;;;;7.33;7.00;;;;;;;;5025513;28;45469;-77
2023/09/26 04:41:43;;;;;;;;;6.00;6.00;;;;;;;;5025944;28;46933;-77
2023/09/26 04:44:08;;;;;;;;;5.00;5.00;;;;;;;;5026710;28;45432;-77
2023/09/26 04:46:33;;;;;;;;;7.00;6.00;;;;;;;;5023056;28;45224;-77
2023/09/26 04:48:58;;;;;;;;;6.00;6.00;;;;;;;;5020554;28;45435;-78
2023/09/26 04:51:26;;;;;;;;;5.00;5.00;;;;;;;;5021357;28;46193;-78
2023/09/26 04:53:52;;;;;;;;;6.33;6.33;;;;;;;;5020328;28;47107;-78
2023/09/26 04:56:17;;;;;;;;;4.00;4.00;;;;;;;;5022589;28;45256;-78
2023/09/26 04:58:42;;;;;;;;;9.00;6.33;;;;;;;;5026589;28;45302;-79
2023/09/26 05:01:11;;;;;;;;;5.67;5.33;;;;;;;;5027365;28;47609;-78
2023/09/26 05:03:37;;;;;;;;;8.00;6.67;;;;;;;;5034150;28;45423;-78
2023/09/26 05:06:02;;;;;;;;;8.67;6.67;;;;;;;;5047906;28;45327;-78
2023/09/26 05:08:27;;;;;;;;;7.00;7.00;;;;;;;;5039673;28;45300;-79
2023/09/26 05:10:52;;;;;;;;;5.33;5.33;;;;;;;;5042123;28;46396;-76
2023/09/26 05:13:18;;;;;;;;;7.00;7.00;;;;;;;;5042494;28;45389;-77
2023/09/26 05:15:43;;;;;;;;;6.33;6.00;;;;;;;;5041117;28;45357;-77
2023/09/26 05:18:08;;;;;;;;;6.33;6.33;;;;;;;;5038809;28;45409;-75
2023/09/26 05:20:35;;;;;;;;;7.33;7.00;;;;;;;;5039353;28;45300;-75
2023/09/26 05:23:00;;;;;;;;;8.00;8.00;;;;;;;;5038350;28;45598;-77
2023/09/26 05:25:26;;;;;;;;;8.67;7.67;;;;;;;;5036554;28;45337;-76
2023/09/26 05:27:51;;;;;;;;;6.67;6.67;;;;;;;;5038431;28;45399;-76
2023/09/26 05:30:16;;;;;;;;;9.00;8.67;;;;;;;;5037614;28;45499;-77
2023/09/26 05:32:42;;;;;;;;;7.33;7.33;;;;;;;;5037254;28;45415;-77
2023/09/26 05:35:08;;;;;;;;;7.00;7.00;;;;;;;;5038356;28;45234;-77
2023/09/26 05:37:34;;;;;;;;;7.00;7.00;;;;;;;;5038220;28;45339;-77
2023/09/26 05:39:59;;;;;;;;;7.33;6.67;;;;;;;;5038304;28;45989;-76
2023/09/26 05:42:24;;;;;;;;;7.67;7.00;;;;;;;;5038398;28;47999;-76
2023/09/26 05:44:50;;;;;;;;;5.67;5.67;;;;;;;;5055207;28;45287;-76
2023/09/26 05:47:15;;;;;;;;;10.33;8.00;;;;;;;;5038387;28;45342;-77
2023/09/26 05:49:40;;;;;;;;;8.00;8.00;;;;;;;;5038082;28;45847;-76
2023/09/26 05:52:05;;;;;;;;;6.33;6.33;;;;;;;;5037836;28;47314;-77
2023/09/26 05:54:31;;;;;;;;;7.33;7.33;;;;;;;;5038486;28;45357;-77
2023/09/26 05:56:56;;;;;;;;;8.00;8.00;;;;;;;;5038326;28;45379;-76
2023/09/26 05:59:21;;;;;;;;;8.33;8.33;;;;;;;;5038021;28;46454;-76
2023/09/26 06:01:47;;;;;;;;;7.33;7.33;;;;;;;;5038073;28;48163;-77
2023/09/26 06:04:12;;;;;;;;;6.33;6.00;;;;;;;;5038302;28;45347;-78
2023/09/26 06:06:37;;;;;;;;;9.00;9.00;;;;;;;;5037439;28;45300;-77
2023/09/26 06:09:02;;;;;;;;;9.00;9.00;;;;;;;;5036760;28;46968;-78
2023/09/26 06:11:27;;;;;;;;;8.00;8.00;;;;;;;;5037076;28;47117;-77
2023/09/26 06:13:53;;;;;;;;;9.67;9.67;;;;;;;;5037171;28;45696;-78
2023/09/26 06:16:18;;;;;;;;;8.67;8.33;;;;;;;;5038312;28;45392;-77
2023/09/26 06:18:43;;;;;;;;;9.67;9.67;;;;;;;;5037991;28;45846;-78
2023/09/26 06:21:09;;;;;;;;;8.33;8.33;;;;;;;;5037884;28;45482;-75
2023/09/26 06:23:35;;;;;;;;;9.33;9.00;;;;;;;;5037637;28;45242;-75
2023/09/26 06:26:01;;;;;;;;;7.00;6.00;;;;;;;;5037763;28;45381;-76
2023/09/26 06:28:27;;;;;;;;;7.67;7.67;;;;;;;;5037702;28;47231;-76
2023/09/26 06:30:52;;;;;;;;;7.33;7.33;;;;;;;;5037865;28;47090;-76
2023/09/26 06:33:17;;;;;;;;;7.67;7.67;;;;;;;;5037495;28;45296;-76
2023/09/26 06:35:43;;;;;;;;;7.33;7.33;;;;;;;;5037697;28;45189;-76
2023/09/26 06:38:08;;;;;;;;;8.67;8.67;;;;;;;;5039790;28;45716;-76
2023/09/26 06:40:33;;;;;;;;;9.67;8.33;;;;;;;;5041306;28;45703;-76
2023/09/26 06:43:00;;;;;;;;;7.00;7.00;;;;;;;;5040966;28;45297;-76
2023/09/26 06:45:26;;;;;;;;;10.00;8.67;;;;;;;;5041459;28;45333;-78
2023/09/26 06:47:51;;;;;;;;;9.00;9.00;;;;;;;;5041032;28;46793;-78
2023/09/26 06:50:16;;;;;;;;;9.00;9.00;;;;;;;;5040831;28;47216;-78
2023/09/26 06:52:42;;;;;;;;;10.00;10.00;;;;;;;;5038541;28;45336;-78
2023/09/26 06:55:10;;;;;;;;;10.33;9.67;;;;;;;;5021159;28;45253;-78
2023/09/26 06:57:36;;;;;;;;;9.00;8.67;;;;;;;;5022412;28;45279;-79
2023/09/26 07:00:05;;;;;;;;;10.67;10.67;;;;;;;;5022243;28;46210;-78
2023/09/26 07:02:30;;;;;;;;;11.33;10.33;;;;;;;;5020990;28;45374;-78
2023/09/26 07:04:56;;;;;;;;;10.00;10.00;;;;;;;;5022545;28;45433;-79
2023/09/26 07:07:22;;;;;;;;;8.33;8.33;;;;;;;;5022009;28;46042;-79
2023/09/26 07:09:48;;;;;;;;;12.33;11.00;;;;;;;;5022101;28;46224;-79
2023/09/26 07:12:17;;;;;;;;;9.33;9.00;;;;;;;;5020754;28;45435;-80
2023/09/26 07:14:42;;;;;;;;;8.33;8.33;;;;;;;;5020891;28;45282;-79
2023/09/26 07:17:09;;;;;;;;;8.67;8.67;;;;;;;;5022219;28;45919;-78
2023/09/26 07:19:34;;;;;;;;;12.00;11.00;;;;;;;;5021967;28;45274;-79
2023/09/26 07:21:59;;;;;;;;;8.33;8.00;;;;;;;;5021866;28;45354;-79
2023/09/26 07:24:25;;;;;;;;;10.33;9.00;;;;;;;;5022233;28;45390;-78
2023/09/26 07:26:51;;;;;;;;;10.67;10.67;;;;;;;;5021576;28;45769;-79
2023/09/26 07:29:16;;;;;;;;;11.33;10.00;;;;;;;;5028562;28;47000;-79
2023/09/26 07:31:42;;;;;;;;;9.33;8.00;;;;;;;;5040369;28;45320;-78
2023/09/26 07:34:08;;;;;;;;;8.33;8.33;;;;;;;;5041957;28;45346;-79
2023/09/26 07:36:34;;;;;;;;;10.67;10.67;;;;;;;;5040107;28;46308;-78
2023/09/26 07:38:59;;;;;;;;;10.00;9.00;;;;;;;;5039948;28;47514;-82
2023/09/26 07:41:24;;;;;;;;;8.67;7.67;;;;;;;;5041317;28;45362;-80
2023/09/26 07:43:49;;;;;;;;;8.00;8.00;;;;;;;;5039140;28;45309;-79
2023/09/26 07:46:15;;;;;;;;;12.00;10.00;;;;;;;;5033275;28;47216;-79
2023/09/26 07:48:40;;;;;;;;;10.00;10.00;;;;;;;;5039495;28;45516;-81
2023/09/26 07:51:06;;;;;;;;;7.00;7.00;;;;;;;;5039285;28;46394;-82
2023/09/26 07:53:31;;;;;;;;;7.67;7.67;;;;;;;;5041105;28;45364;-80
2023/09/26 07:55:56;;;;;;;;;8.33;8.33;;;;;;;;5039979;28;45401;-79
2023/09/26 07:58:22;;;;;;;;;5.67;5.33;;;;;;;;5038908;28;47120;-79
2023/09/26 08:00:47;;;;;;;;;7.00;7.00;;;;;;;;5039764;28;45311;-78
2023/09/26 08:03:12;;;;;;;;;10.67;7.67;;;;;;;;5040448;28;45477;-79
2023/09/26 08:05:38;;;;;;;;;8.00;7.00;;;;;;;;5038467;28;47380;-79
2023/09/26 08:08:04;;;;;;;;;6.33;6.33;;;;;;;;5038683;28;47666;-79
2023/09/26 08:10:30;;;;;;;;;6.00;6.00;;;;;;;;5037771;28;45360;-78
2023/09/26 08:12:55;;;;;;;;;7.00;7.00;;;;;;;;5040225;28;45545;-79
2023/09/26 08:15:20;;;;;;;;;7.33;7.33;;;;;;;;5039032;28;45540;-78
2023/09/26 08:17:45;;;;;;;;;5.33;5.33;;;;;;;;5040362;28;45316;-79
2023/09/26 08:20:11;;;;;;;;;7.00;7.00;;;;;;;;5041389;28;45424;-83
2023/09/26 08:22:36;;;;;;;;;7.33;7.00;;;;;;;;5023904;28;45829;-83
2023/09/26 08:25:02;;;;;;;;;7.33;7.00;;;;;;;;5030869;28;45455;-79
2023/09/26 08:27:27;;;;;;;;;7.00;7.00;;;;;;;;5036342;28;46067;-81
2023/09/26 08:29:53;;;;;;;;;8.33;8.33;;;;;;;;5019098;28;45378;-82
2023/09/26 08:32:18;;;;;;;;;8.00;8.00;;;;;;;;5020668;28;45635;-81
2023/09/26 08:34:43;;;;;;;;;5.67;5.67;;;;;;;;5020393;28;45536;-82
2023/09/26 08:37:10;;;;;;;;;9.33;9.00;;;;;;;;5019463;28;45579;-80
2023/09/26 08:39:35;;;;;;;;;7.67;7.00;;;;;;;;5020166;28;45428;-81
2023/09/26 08:42:01;;;;;;;;;10.00;8.33;;;;;;;;5036316;28;45616;-80
2023/09/26 08:44:27;;;;;;;;;9.33;9.33;;;;;;;;5039872;28;45310;-80
2023/09/26 08:46:52;;;;;;;;;6.00;6.00;;;;;;;;5038309;28;48057;-79
2023/09/26 08:49:23;;;;;;;;;6.33;6.33;;;;;;;;5040067;28;45204;-80
2023/09/26 08:51:49;;;;;;;;;7.00;6.67;;;;;;;;5040026;28;45409;-80
2023/09/26 08:54:16;;;;;;;;;6.67;6.67;;;;;;;;5039960;28;45327;-80
2023/09/26 08:56:44;;;;;;;;;6.00;6.00;;;;;;;;5040107;28;46254;-80
2023/09/26 08:59:09;;;;;;;;;7.00;6.00;;;;;;;;5039828;28;45200;-79
2023/09/26 09:01:35;;;;;;;;;7.00;7.00;;;;;;;;5040031;28;45300;-78
2023/09/26 09:04:00;;;;;;;;;7.00;7.00;;;;;;;;5038563;28;46030;-79
2023/09/26 09:06:27;;;;;;;;;6.67;6.67;;;;;;;;5045710;28;47893;-78
2023/09/26 09:09:14;;;;;;;;;5.33;5.33;;;;;;;;5037637;28;45388;-80
2023/09/26 09:11:42;;;;;;;;;6.67;6.67;;;;;;;;5039136;28;45337;-78
2023/09/26 09:14:10;;;;;;;;;8.67;8.33;;;;;;;;5035582;28;46987;-80
2023/09/26 09:16:36;;;;;;;;;6.67;6.67;;;;;;;;5030609;28;46523;-80
2023/09/26 09:19:01;;;;;;;;;9.33;7.67;;;;;;;;5036071;28;45591;-79
2023/09/26 09:21:30;;;;;;;;;8.00;7.00;;;;;;;;5036950;28;45402;-80
2023/09/26 09:24:11;;;;;;;;;9.67;6.00;;;;;;;;5036284;28;46118;-78
2023/09/26 09:26:37;;;;;;;;;6.33;5.33;;;;;;;;5039209;28;45462;-79
2023/09/26 09:29:18;;;;;;;;;6.00;6.00;;;;;;;;5033585;28;45449;-80
2023/09/26 09:31:44;;;;;;;;;6.00;6.00;;;;;;;;5019144;28;45355;-78
2023/09/26 09:34:09;;;;;;;;;5.00;5.00;;;;;;;;5032735;28;45137;-79
2023/09/26 09:36:37;;;;;;;;;7.00;6.67;;;;;;;;5043155;28;45256;-77
2023/09/26 09:39:02;;;;;;;;;4.00;4.00;;;;;;;;5042696;28;45653;-77
2023/09/26 09:41:27;;;;;;;;;6.67;6.67;;;;;;;;5044119;28;45702;-77
2023/09/26 09:43:53;;;;;;;;;4.00;3.00;;;;;;;;5051620;28;45375;-80
2023/09/26 09:46:20;;;;;;;;;6.67;6.67;;;;;;;;5046390;28;45300;-77
2023/09/26 09:48:46;;;;;;;;;8.00;7.33;;;;;;;;5048205;28;45371;-77
2023/09/26 09:51:13;;;;;;;;;7.00;6.00;;;;;;;;5046498;28;44808;-77
2023/09/26 09:53:41;;;;;;;;;6.00;6.00;;;;;;;;5043381;28;47873;-78
2023/09/26 09:56:07;;;;;;;;;7.00;7.00;;;;;;;;5041539;28;46127;-78
2023/09/26 09:58:33;;;;;;;;;7.00;7.00;;;;;;;;5040034;28;45349;-77
2023/09/26 10:01:00;;;;;;;;;7.33;6.67;;;;;;;;5040185;28;45394;-77
2023/09/26 10:03:25;;;;;;;;;6.67;5.00;;;;;;;;5041793;28;45347;-75
2023/09/26 10:05:51;;;;;;;;;6.33;6.33;;;;;;;;5039389;28;45898;-78
2023/09/26 10:08:16;;;;;;;;;7.00;7.00;;;;;;;;5038477;28;45423;-79
2023/09/26 10:10:41;;;;;;;;;6.00;6.00;;;;;;;;5038265;28;45308;-78
2023/09/26 10:13:07;;;;;;;;;5.33;5.00;;;;;;;;5036577;28;46539;-78
2023/09/26 10:15:53;;;;;;;;;4.00;4.00;;;;;;;;5039356;28;46091;-78
2023/09/26 10:18:19;;;;;;;;;6.33;6.33;;;;;;;;5039165;28;45201;-81
2023/09/26 10:20:46;;;;;;;;;6.00;4.25;;;;;;;;5039542;28;45200;-76
2023/09/26 10:23:11;;;;;;;;;6.67;6.67;;;;;;;;5039866;28;45391;-81
2023/09/26 10:25:37;;;;;;;;;4.00;4.00;;;;;;;;5040864;28;45272;-78
2023/09/26 10:28:03;;;;;;;;;5.00;5.00;;;;;;;;5043356;28;45308;-79
2023/09/26 10:30:29;;;;;;;;;7.33;7.33;;;;;;;;5038661;28;45499;-79
2023/09/26 10:32:54;;;;;;;;;8.33;6.67;;;;;;;;5043836;28;45338;-79
2023/09/26 10:35:24;;;;;;;;;5.50;5.50;;;;;;;;5047608;28;45213;-80
2023/09/26 10:37:50;;;;;;;;;6.00;6.00;;;;;;;;5038761;28;45225;-82
2023/09/26 10:40:16;;;;;;;;;6.67;6.00;;;;;;;;5039709;28;45278;-78
2023/09/26 10:42:42;;;;;;;;;5.00;5.00;;;;;;;;5040175;28;45358;-78
2023/09/26 10:45:11;;;;;;;;;7.00;7.00;;;;;;;;5039603;28;45391;-79
2023/09/26 10:47:38;;;;;;;;;4.33;4.33;;;;;;;;5038875;28;45377;-79
2023/09/26 10:50:13;;;;;;;;;6.67;6.67;;;;;;;;5048958;28;45283;-78
2023/09/26 10:52:46;;;;;;;;;7.00;6.00;;;;;;;;5045310;28;45340;-77
2023/09/26 10:55:12;;;;;;;;;6.67;6.67;;;;;;;;5044386;28;46182;-79
2023/09/26 10:57:41;;;;;;;;;8.67;7.00;;;;;;;;5038132;28;45340;-78
2023/09/26 11:00:09;;;;;;;;;4.75;4.75;;;;;;;;5042287;28;45393;-76
2023/09/26 11:02:34;;;;;;;;;65.50;56.75;;;;;;;;5045398;28;45828;-76
2023/09/26 11:05:04;;;;;;;;;6.33;6.00;;;;;;;;5036615;28;46213;-75
2023/09/26 11:07:29;;;;;;;;;4.00;4.00;;;;;;;;5022571;28;45283;-77
2023/09/26 11:09:55;;;;;;;;;6.00;6.00;;;;;;;;5038410;28;45260;-76
2023/09/26 11:12:20;;;;;;;;;5.75;5.75;;;;;;;;5042153;28;45964;-76
2023/09/26 11:14:45;;;;;;;;;5.00;4.00;;;;;;;;5044148;28;45459;-76
2023/09/26 11:17:11;;;;;;;;;4.00;4.00;;;;;;;;5038951;28;45306;-75
2023/09/26 11:19:38;;;;;;;;;5.25;5.25;;;;;;;;5053915;28;45581;-75
2023/09/26 11:22:04;;;;;;;;;5.00;5.00;;;;;;;;5040386;28;45360;-74
2023/09/26 11:24:32;;;;;;;;;5.00;5.00;;;;;;;;5039477;28;45466;-75
2023/09/26 11:27:00;;;;;;;;;7.25;6.75;;;;;;;;5041064;28;45323;-75
2023/09/26 11:29:25;;;;;;;;;7.25;6.75;;;;;;;;5032553;28;45307;-75
2023/09/26 11:31:55;;;;;;;;;5.25;5.25;;;;;;;;5036878;28;47192;-77
2023/09/26 11:34:20;;;;;;;;;6.75;5.00;;;;;;;;5021860;28;45369;-76
2023/09/26 11:36:47;;;;;;;;;3.50;3.50;;;;;;;;5021829;28;45249;-78
2023/09/26 11:39:14;;;;;;;;;6.25;5.50;;;;;;;;5037475;28;45214;-76
2023/09/26 11:41:39;;;;;;;;;5.50;4.00;;;;;;;;5021962;28;45232;-78
2023/09/26 11:44:08;;;;;;;;;5.50;5.50;;;;;;;;5021678;28;45407;-77
2023/09/26 11:46:47;;;;;;;;;7.00;6.00;;;;;;;;5022504;28;45380;-75
2023/09/26 11:49:13;;;;;;;;;6.00;6.00;;;;;;;;5022241;28;45197;-76
2023/09/26 11:51:38;;;;;;;;;3.50;3.50;;;;;;;;5037180;28;47620;-78
2023/09/26 11:54:05;;;;;;;;;5.50;5.50;;;;;;;;5024843;28;45432;-77
2023/09/26 11:56:30;;;;;;;;;4.00;4.00;;;;;;;;5038537;28;46472;-76
2023/09/26 11:58:55;;;;;;;;;6.00;6.00;;;;;;;;5021824;28;45877;-76
2023/09/26 12:01:21;;;;;;;;;4.25;3.25;;;;;;;;5022114;28;45410;-77
2023/09/26 12:03:46;;;;;;;;;2.00;2.00;;;;;;;;5022670;28;45311;-77
2023/09/26 12:06:11;;;;;;;;;5.25;4.75;;;;;;;;5040886;28;46207;-76
2023/09/26 12:08:36;;;;;;;;;5.00;5.00;;;;;;;;5037685;28;45387;-77
2023/09/26 12:11:02;;;;;;;;;7.00;7.00;;;;;;;;5020207;28;46248;-79
2023/09/26 12:13:27;;;;;;;;;5.00;5.00;;;;;;;;5021256;28;45300;-78
2023/09/26 12:15:52;;;;;;;;;4.00;4.00;;;;;;;;5023896;28;45347;-80
2023/09/26 12:18:17;;;;;;;;;3.75;3.75;;;;;;;;5021462;28;45347;-79
2023/09/26 12:20:42;;;;;;;;;5.75;5.75;;;;;;;;5019863;28;45983;-80
2023/09/26 12:23:10;;;;;;;;;5.00;5.00;;;;;;;;5020287;28;48184;-80
2023/09/26 12:25:35;;;;;;;;;5.25;5.00;;;;;;;;5021048;28;45304;-79
2023/09/26 12:28:00;;;;;;;;;5.50;5.50;;;;;;;;5020750;28;45288;-77
2023/09/26 12:30:25;;;;;;;;;4.25;4.25;;;;;;;;5029916;28;45566;-79
2023/09/26 12:32:51;;;;;;;;;5.00;5.00;;;;;;;;5039473;28;45735;-79
2023/09/26 12:35:16;;;;;;;;;3.00;3.00;;;;;;;;5039072;28;45309;-78
2023/09/26 12:37:42;;;;;;;;;5.50;5.50;;;;;;;;5038758;28;45340;-79
2023/09/26 12:40:12;;;;;;;;;6.00;6.00;;;;;;;;5039665;28;45322;-78
2023/09/26 12:42:38;;;;;;;;;4.50;4.50;;;;;;;;5038475;28;47362;-79
2023/09/26 12:45:03;;;;;;;;;5.75;4.00;;;;;;;;5038894;28;45752;-79
2023/09/26 12:47:29;;;;;;;;;4.00;4.00;;;;;;;;5039794;28;45343;-79
2023/09/26 12:49:54;;;;;;;;;8.00;5.25;;;;;;;;5037928;28;46287;-80
2023/09/26 12:52:26;;;;;;;;;5.75;5.75;;;;;;;;5038797;28;45680;-82
2023/09/26 12:54:51;;;;;;;;;2.25;2.25;;;;;;;;5040049;28;45416;-78
2023/09/26 12:57:17;;;;;;;;;6.75;6.00;;;;;;;;5038279;28;45337;-81
2023/09/26 12:59:42;;;;;;;;;3.00;3.00;;;;;;;;5039019;28;45433;-82
2023/09/26 13:02:09;;;;;;;;;6.00;5.00;;;;;;;;5037577;28;46200;-83
2023/09/26 13:04:34;;;;;;;;;3.75;3.75;;;;;;;;5033461;28;45382;-81
2023/09/26 13:06:59;;;;;;;;;6.00;5.00;;;;;;;;5039640;28;45480;-79
2023/09/26 13:09:24;;;;;;;;;5.50;5.50;;;;;;;;5036515;28;45563;-80
2023/09/26 13:11:49;;;;;;;;;4.50;3.75;;;;;;;;5039279;28;45453;-81
2023/09/26 13:14:15;;;;;;;;;3.25;3.25;;;;;;;;5024138;28;45389;-81
2023/09/26 13:16:40;;;;;;;;;4.00;4.00;;;;;;;;5039780;28;45296;-81
2023/09/26 13:19:08;;;;;;;;;4.75;4.75;;;;;;;;5035102;28;45803;-80
2023/09/26 13:21:34;;;;;;;;;2.50;2.00;;;;;;;;5037776;28;47257;-77
2023/09/26 13:23:59;;;;;;;;;4.50;4.50;;;;;;;;5037544;28;46446;-81
2023/09/26 13:26:24;;;;;;;;;0.00;0.00;;;;;;;;5036010;28;45456;-81
2023/09/26 13:28:50;;;;;;;;;6.00;6.00;;;;;;;;5039704;28;46488;-81
2023/09/26 13:31:15;;;;;;;;;4.50;3.75;;;;;;;;5038070;28;47055;-81
2023/09/26 13:33:40;;;;;;;;;5.00;5.00;;;;;;;;5039196;28;45445;-82
2023/09/26 13:36:09;;;;;;;;;3.25;3.25;;;;;;;;5038222;28;45448;-81
2023/09/26 13:38:34;;;;;;;;;5.00;5.00;;;;;;;;5039957;28;47471;-81
2023/09/26 13:41:00;;;;;;;;;6.25;5.75;;;;;;;;5040159;28;45758;-81
2023/09/26 13:43:25;;;;;;;;;4.75;4.50;;;;;;;;5041484;28;45438;-80
2023/09/26 13:45:51;;;;;;;;;4.50;4.50;;;;;;;;5036757;28;45372;-79
2023/09/26 13:48:16;;;;;;;;;3.00;3.00;;;;;;;;5036879;28;45525;-83
2023/09/26 13:50:41;;;;;;;;;4.50;4.50;;;;;;;;5036877;28;48122;-80
2023/09/26 13:53:06;;;;;;;;;4.00;4.00;;;;;;;;5037350;28;45419;-79
2023/09/26 13:55:32;;;;;;;;;4.25;4.25;;;;;;;;5036888;28;45964;-80
2023/09/26 13:57:57;;;;;;;;;5.00;5.00;;;;;;;;5036927;28;45610;-83
2023/09/26 14:00:22;;;;;;;;;4.00;4.00;;;;;;;;5037462;28;47393;-83
2023/09/26 14:02:52;;;;;;;;;3.00;3.00;;;;;;;;5038566;28;45382;-81
2023/09/26 14:05:17;;;;;;;;;3.00;3.00;;;;;;;;5037526;28;45360;-80
2023/09/26 14:07:42;;;;;;;;;3.50;3.50;;;;;;;;5036712;28;46299;-80
2023/09/26 14:10:09;;;;;;;;;4.00;4.00;;;;;;;;5037002;28;47433;-82
2023/09/26 14:12:34;;;;;;;;;2.00;2.00;;;;;;;;5038910;28;45424;-82
2023/09/26 14:14:59;;;;;;;;;3.25;3.25;;;;;;;;5037973;28;45413;-79
2023/09/26 14:17:24;;;;;;;;;3.50;3.25;;;;;;;;5036189;28;45646;-83
2023/09/26 14:19:50;;;;;;;;;2.50;2.50;;;;;;;;5036699;28;46609;-81
2023/09/26 14:22:15;;;;;;;;;4.00;3.00;;;;;;;;5038025;28;45565;-80
2023/09/26 14:24:40;;;;;;;;;5.50;4.00;;;;;;;;5038922;28;45348;-80
2023/09/26 14:27:05;;;;;;;;;3.50;3.25;;;;;;;;5037994;28;45556;-80
2023/09/26 14:29:32;;;;;;;;;2.50;2.50;;;;;;;;5035658;28;47407;-79
2023/09/26 14:31:58;;;;;;;;;2.25;2.25;;;;;;;;5038099;28;45392;-78
2023/09/26 14:34:23;;;;;;;;;5.00;3.00;;;;;;;;5026820;28;45394;-80